createdAt,value
2023-03-21T00:04:24.858Z,15.25
2023-03-21T00:09:27.186Z,15.29
2023-03-21T00:14:31.172Z,15.76
2023-03-21T00:19:32.948Z,16.10
2023-03-21T00:24:36.022Z,16.27
2023-03-21T00:29:37.946Z,15.14
2023-03-21T00:34:48.545Z,14.78
2023-03-21T00:39:56.514Z,15.69
2023-03-21T00:44:58.249Z,15.02
2023-03-21T00:49:59.866Z,15.16
2023-03-21T00:55:01.594Z,15.06
2023-03-21T01:00:07.454Z,15.29
2023-03-21T01:05:11.638Z,15.39
2023-03-21T01:10:13.629Z,14.75
2023-03-21T01:15:15.442Z,14.49
2023-03-21T01:20:17.401Z,14.58
2023-03-21T01:25:22.699Z,14.51
2023-03-21T01:30:24.972Z,14.84
2023-03-21T01:35:30.012Z,14.63
2023-03-21T01:40:34.117Z,15.14
2023-03-21T01:46:09.975Z,13.52
2023-03-21T01:51:13.513Z,14.50
2023-03-21T01:56:38.809Z,14.23
2023-03-21T02:01:42.424Z,14.74
2023-03-21T02:06:54.583Z,14.69
2023-03-21T02:11:56.995Z,13.84
2023-03-21T02:17:05.705Z,14.35
2023-03-21T02:22:28.877Z,11.98
2023-03-21T02:27:40.987Z,12.90
2023-03-21T02:32:48.316Z,13.78
2023-03-21T02:38:00.862Z,12.31
2023-03-21T02:43:32.104Z,12.86
2023-03-21T02:48:50.706Z,11.09
2023-03-21T02:54:27.914Z,11.61
2023-03-21T02:59:27.123Z,12.04
2023-03-21T03:04:29.041Z,12.87
2023-03-21T03:09:43.312Z,14.11
2023-03-21T03:15:03.630Z,13.99
2023-03-21T03:20:20.593Z,11.78
2023-03-21T03:25:43.060Z,11.55
2023-03-21T03:31:01.200Z,10.55
2023-03-21T03:36:25.024Z,9.94
2023-03-21T03:42:03.089Z,12.00
2023-03-21T03:47:06.544Z,10.02
2023-03-21T03:52:21.703Z,9.47
2023-03-21T03:57:26.304Z,11.15
2023-03-21T04:02:30.207Z,11.18
2023-03-21T04:07:32.139Z,12.52
2023-03-21T04:12:33.969Z,12.38
2023-03-21T04:17:35.660Z,12.37
2023-03-21T04:22:38.157Z,12.74
2023-03-21T04:27:39.828Z,11.74
2023-03-21T04:32:42.729Z,11.74
2023-03-21T04:37:44.427Z,10.61
2023-03-21T04:42:49.344Z,12.77
2023-03-21T04:47:51.158Z,12.87
2023-03-21T04:52:52.856Z,10.52
2023-03-21T04:57:54.649Z,12.25
2023-03-21T05:02:57.815Z,11.53
2023-03-21T05:08:00.607Z,12.22
2023-03-21T05:13:02.314Z,11.66
2023-03-21T05:18:11.456Z,10.91
2023-03-21T05:23:13.257Z,11.25
2023-03-21T05:28:18.200Z,11.91
2023-03-21T05:33:19.826Z,11.82
2023-03-21T05:38:21.625Z,11.97
2023-03-21T05:43:23.419Z,9.81
2023-03-21T05:48:25.413Z,9.71
2023-03-21T05:53:27.313Z,10.09
2023-03-21T05:58:29.998Z,9.26
2023-03-21T06:03:31.697Z,11.36
2023-03-21T06:08:33.680Z,11.22
2023-03-21T06:13:35.319Z,12.71
2023-03-21T06:18:37.440Z,12.44
2023-03-21T06:23:39.461Z,11.33
2023-03-21T06:28:41.312Z,11.74
2023-03-21T06:33:43.028Z,12.05
2023-03-21T06:38:44.780Z,10.31
2023-03-21T06:43:46.537Z,12.13
2023-03-21T06:48:48.343Z,12.76
2023-03-21T06:53:50.033Z,10.07
2023-03-21T06:58:51.779Z,10.63
2023-03-21T07:03:58.357Z,12.41
2023-03-21T07:09:00.733Z,11.25
2023-03-21T07:14:02.492Z,10.03
2023-03-21T07:19:04.193Z,11.88
2023-03-21T07:24:06.227Z,11.17
2023-03-21T07:29:08.158Z,11.57
2023-03-21T07:34:09.776Z,11.57
2023-03-21T07:39:11.431Z,12.21
2023-03-21T07:44:13.257Z,11.47
2023-03-21T07:49:15.435Z,12.79
2023-03-21T07:54:19.339Z,12.63
2023-03-21T07:59:21.124Z,13.49
2023-03-21T08:04:22.885Z,12.98
2023-03-21T08:09:24.787Z,13.12
2023-03-21T08:14:26.460Z,11.57
2023-03-21T08:19:28.202Z,13.90
2023-03-21T08:24:30.255Z,13.21
2023-03-21T08:29:32.004Z,13.34
2023-03-21T08:34:33.674Z,13.65
2023-03-21T08:39:35.357Z,12.40
2023-03-21T08:44:39.053Z,12.74
2023-03-21T08:49:41.694Z,14.13
2023-03-21T08:54:45.430Z,14.32
2023-03-21T08:59:47.152Z,12.77
2023-03-21T09:04:48.872Z,14.17
2023-03-21T09:10:08.094Z,13.56
2023-03-21T09:15:15.262Z,13.39
2023-03-21T09:20:18.818Z,15.59
2023-03-21T09:25:21.548Z,15.97
2023-03-21T09:30:26.147Z,13.93
2023-03-21T09:35:28.361Z,15.98
2023-03-21T09:40:50.372Z,15.85
2023-03-21T09:45:58.413Z,16.17
2023-03-21T09:51:01.193Z,14.70
2023-03-21T09:56:05.574Z,16.06
2023-03-21T10:01:22.306Z,14.34
2023-03-21T10:06:29.429Z,15.62
2023-03-21T10:11:42.433Z,14.21
2023-03-21T10:16:47.149Z,13.82
2023-03-21T10:22:05.959Z,12.87
2023-03-21T10:27:07.888Z,12.68
2023-03-21T10:32:13.893Z,15.06
2023-03-21T10:37:16.927Z,14.18
2023-03-21T10:42:24.972Z,16.35
2023-03-21T10:47:31.248Z,16.00
2023-03-21T10:52:34.521Z,15.51
2023-03-21T10:57:38.200Z,14.99
2023-03-21T11:06:36.633Z,11.47
2023-03-21T11:11:40.887Z,12.82
2023-03-21T11:16:44.216Z,12.97
2023-03-21T11:21:46.472Z,13.13
2023-03-21T11:26:50.822Z,12.55
2023-03-21T11:31:52.629Z,13.34
2023-03-21T11:36:59.720Z,14.56
2023-03-21T11:42:01.344Z,13.55
2023-03-21T11:47:03.300Z,14.73
2023-03-21T11:52:32.830Z,16.07
2023-03-21T11:57:46.621Z,12.91
2023-03-21T12:03:03.507Z,14.82
2023-03-21T12:08:20.432Z,14.16
2023-03-21T12:13:46.786Z,13.87
2023-03-21T12:19:00.726Z,14.47
2023-03-21T12:24:24.885Z,15.43
2023-03-21T12:29:27.047Z,14.94
2023-03-21T12:34:34.964Z,15.51
2023-03-21T12:39:40.894Z,14.32
2023-03-21T12:44:47.975Z,15.61
2023-03-21T12:50:12.855Z,14.42
2023-03-21T12:55:27.897Z,16.41
2023-03-21T13:00:32.262Z,16.81
2023-03-21T13:05:35.888Z,16.38
2023-03-21T13:10:40.427Z,16.83
2023-03-21T13:15:59.743Z,16.82
2023-03-21T13:21:13.741Z,16.46
2023-03-21T13:26:16.100Z,16.46
2023-03-21T13:31:25.825Z,18.24
2023-03-21T13:36:31.846Z,17.24
2023-03-21T13:41:38.903Z,15.56
2023-03-21T13:46:54.029Z,16.53
2023-03-21T13:51:58.903Z,17.95
2023-03-21T13:57:05.372Z,15.55
2023-03-21T14:02:19.005Z,14.77
2023-03-21T14:07:26.409Z,16.24
2023-03-21T14:12:34.792Z,15.99
2023-03-21T14:17:36.609Z,15.43
2023-03-21T14:22:41.861Z,15.11
2023-03-21T14:27:47.567Z,15.56
2023-03-21T14:32:49.512Z,15.60
2023-03-21T14:37:51.735Z,14.67
2023-03-21T14:42:54.494Z,14.84
2023-03-21T14:48:06.783Z,16.24
2023-03-21T14:53:32.749Z,16.65
2023-03-21T14:58:38.999Z,15.40
2023-03-21T15:03:43.888Z,16.07
2023-03-21T15:09:04.061Z,14.50
2023-03-21T15:14:14.062Z,16.21
2023-03-21T15:19:20.183Z,16.64
2023-03-21T15:24:30.297Z,17.36
2023-03-21T15:29:34.441Z,15.66
2023-03-21T15:34:36.656Z,14.80
2023-03-21T15:39:38.408Z,15.00
2023-03-21T15:44:49.588Z,15.67
2023-03-21T15:49:55.710Z,14.48
2023-03-21T15:54:59.293Z,17.05
2023-03-21T16:00:12.869Z,17.08
2023-03-21T16:05:26.435Z,14.91
2023-03-21T16:10:32.260Z,16.98
2023-03-21T16:15:34.278Z,15.06
2023-03-21T16:20:41.100Z,14.94
2023-03-21T16:25:44.084Z,14.02
2023-03-21T16:30:45.791Z,14.92
2023-03-21T16:35:47.621Z,15.07
2023-03-21T16:40:51.352Z,14.60
2023-03-21T16:45:53.053Z,15.81
2023-03-21T16:50:54.695Z,16.36
2023-03-21T16:56:02.516Z,16.78
2023-03-21T17:01:04.245Z,17.26
2023-03-21T17:06:06.220Z,16.18
2023-03-21T17:11:12.725Z,16.31
2023-03-21T17:16:19.283Z,17.38
2023-03-21T17:21:24.039Z,17.05
2023-03-21T17:26:28.401Z,17.97
2023-03-21T17:31:37.214Z,17.57
2023-03-21T17:36:42.230Z,15.19
2023-03-21T17:41:43.955Z,15.40
2023-03-21T17:46:46.498Z,15.84
2023-03-21T17:51:48.302Z,17.67
2023-03-21T17:56:50.004Z,15.64
2023-03-21T18:01:51.938Z,15.78
2023-03-21T18:06:57.421Z,15.85
2023-03-21T18:11:59.126Z,16.39
2023-03-21T18:17:00.878Z,15.78
2023-03-21T18:22:03.679Z,15.66
2023-03-21T18:27:06.558Z,15.04
2023-03-21T18:32:08.945Z,14.04
2023-03-21T18:37:13.265Z,15.24
2023-03-21T18:42:18.456Z,13.90
2023-03-21T18:47:24.713Z,14.48
2023-03-21T18:52:27.177Z,14.52
2023-03-21T18:57:38.253Z,14.07
2023-03-21T19:02:47.732Z,16.14
2023-03-21T19:07:51.591Z,16.51
2023-03-21T19:12:54.762Z,14.34
2023-03-21T19:23:18.824Z,15.41
2023-03-21T19:28:20.558Z,17.01
2023-03-21T19:33:22.779Z,16.55
2023-03-21T19:38:24.382Z,16.59
2023-03-21T19:43:32.894Z,13.94
2023-03-21T19:48:35.269Z,13.78
2023-03-21T19:53:39.996Z,15.07
2023-03-21T19:58:41.845Z,13.31
2023-03-21T20:03:47.331Z,14.35
2023-03-21T20:09:27.660Z,15.29
2023-03-21T20:14:11.069Z,15.48
2023-03-21T20:19:14.703Z,15.31
2023-03-21T20:24:17.002Z,15.58
2023-03-21T20:34:40.650Z,16.46
2023-03-21T20:39:42.671Z,15.72
2023-03-21T20:44:57.956Z,15.73
2023-03-21T20:50:00.556Z,15.44
2023-03-21T20:55:03.093Z,15.04
2023-03-21T21:00:09.087Z,14.33
2023-03-21T21:05:25.409Z,14.14
2023-03-21T21:10:29.794Z,14.70
2023-03-21T21:15:33.327Z,15.02
2023-03-21T21:20:36.779Z,15.84
2023-03-21T21:25:38.581Z,15.17
2023-03-21T21:30:41.470Z,15.55
2023-03-21T21:35:47.716Z,14.77
2023-03-21T21:40:53.454Z,12.70
2023-03-21T21:45:55.104Z,15.05
2023-03-21T21:50:56.783Z,14.63
2023-03-21T21:55:58.383Z,15.22
2023-03-21T22:01:01.849Z,15.24
2023-03-21T22:06:04.697Z,15.04
2023-03-21T22:11:06.704Z,14.90
2023-03-21T22:16:08.666Z,15.56
2023-03-21T22:21:10.396Z,13.27
2023-03-21T22:26:12.014Z,14.77
2023-03-21T22:31:16.089Z,15.17
2023-03-21T22:36:17.832Z,14.98
2023-03-21T22:41:19.402Z,15.87
2023-03-21T22:46:21.166Z,15.48
2023-03-21T22:51:22.860Z,13.08
2023-03-21T22:56:24.540Z,11.54
2023-03-21T23:01:26.291Z,13.43
2023-03-21T23:06:27.965Z,14.77
2023-03-21T23:11:29.731Z,14.33
2023-03-21T23:16:31.990Z,14.40
2023-03-21T23:21:34.149Z,14.59
2023-03-21T23:26:36.373Z,15.18
2023-03-21T23:31:38.104Z,13.00
2023-03-21T23:36:39.914Z,13.28
2023-03-21T23:41:42.877Z,12.37
2023-03-21T23:46:44.576Z,11.47
2023-03-21T23:51:47.161Z,10.65
2023-03-21T23:56:48.840Z,11.66
